Time;durP1;ratioP1;P1;durP2;ratioP2;P2;SDS_P1;SDS_P2;PMS_P1;PMS_P2;Temp;Humidity;BMP_temperature;BMP_pressure;BME280_temperature;BME280_humidity;BME280_pressure;Samples;Min_cycle;Max_cycle;Signal;HPM_P1;HPM_P2
2020/12/11 00:02:11;;;;;;;45.60;26.33;;;-0.20;99.90;;;-143.32;100.00;97784.13;4809000;29;20525;-91
2020/12/11 00:04:38;;;;;;;45.30;25.93;;;-0.20;99.90;;;-143.32;100.00;97798.47;4825407;29;20476;-92
2020/12/11 00:07:05;;;;;;;46.70;24.63;;;-0.10;99.90;;;-143.32;100.00;97786.19;4825086;29;20525;-90
2020/12/11 00:09:32;;;;;;;46.13;25.40;;;-0.10;99.90;;;-143.32;100.00;97816.88;4825482;29;20480;-90
2020/12/11 00:11:58;;;;;;;44.80;24.67;;;-0.10;99.90;;;-143.32;100.00;97747.31;4825377;29;20532;-91
2020/12/11 00:14:25;;;;;;;51.73;26.07;;;-0.10;99.90;;;-143.32;100.00;97788.22;4825295;29;20479;-91
2020/12/11 00:16:51;;;;;;;45.90;25.30;;;-0.10;99.90;;;-143.32;100.00;97773.91;4825265;29;20540;-90
2020/12/11 00:19:18;;;;;;;47.57;26.80;;;-0.10;99.90;;;-143.32;100.00;97735.03;4825281;29;20460;-90
2020/12/11 00:21:45;;;;;;;44.00;25.70;;;-0.10;99.90;;;-143.32;100.00;97800.50;4824805;29;20520;-90
2020/12/11 00:24:13;;;;;;;50.37;26.30;;;0.00;99.90;;;-143.32;100.00;97773.91;4825526;29;20491;-90
2020/12/11 00:26:40;;;;;;;49.63;25.03;;;-0.10;99.90;;;-143.32;100.00;97769.81;4824859;29;20457;-92
2020/12/11 00:29:06;;;;;;;49.17;25.33;;;0.00;99.90;;;-143.32;100.00;97755.50;4824801;29;20472;-91
2020/12/11 00:31:33;;;;;;;45.83;26.57;;;0.00;99.90;;;-143.32;100.00;97775.94;4824846;29;20547;-90
2020/12/11 00:34:13;;;;;;;47.50;26.10;;;0.00;99.90;;;-143.32;100.00;97771.84;4824862;29;20492;-89
2020/12/11 00:36:40;;;;;;;46.80;25.13;;;0.00;99.90;;;-143.32;100.00;97769.81;4824440;29;20499;-89
2020/12/11 00:39:07;;;;;;;55.03;27.47;;;0.10;99.90;;;-143.32;100.00;97759.59;4824839;29;20452;-89
2020/12/11 00:41:40;;;;;;;49.37;27.23;;;0.10;99.90;;;-143.32;100.00;97775.94;4824480;29;20542;-91
2020/12/11 00:44:06;;;;;;;47.40;26.03;;;0.10;99.90;;;-143.32;100.00;97763.66;4824866;29;20476;-90
2020/12/11 00:46:33;;;;;;;46.50;25.10;;;0.00;99.90;;;-143.32;100.00;97773.91;4824650;29;20456;-88
2020/12/11 00:48:59;;;;;;;50.37;27.20;;;0.20;99.90;;;-143.32;100.00;97778.00;4824401;29;20499;-91
2020/12/11 00:51:26;;;;;;;46.67;27.23;;;0.00;99.90;;;-143.32;100.00;97784.13;4824463;29;20520;-88
2020/12/11 00:53:52;;;;;;;51.67;27.77;;;0.00;99.90;;;-143.32;100.00;97755.50;4824539;29;20505;-89
2020/12/11 00:56:19;;;;;;;52.83;24.77;;;0.00;99.90;;;-143.32;100.00;97812.78;4824659;29;20877;-88
2020/12/11 00:58:47;;;;;;;48.67;27.80;;;0.00;99.90;;;-143.32;100.00;97753.44;4824657;29;20487;-89
2020/12/11 01:01:13;;;;;;;46.70;25.90;;;0.00;99.90;;;-143.32;100.00;97788.22;4824539;29;20609;-87
2020/12/11 01:03:40;;;;;;;57.70;27.57;;;0.00;99.90;;;-143.32;100.00;97753.44;4824634;29;20491;-89
2020/12/11 01:06:06;;;;;;;52.50;28.80;;;0.10;99.90;;;-143.32;100.00;97735.03;4824545;29;21019;-89
2020/12/11 01:08:33;;;;;;;53.80;28.57;;;0.00;99.90;;;-143.32;100.00;97753.44;4824259;29;20543;-91
2020/12/11 01:11:00;;;;;;;54.93;28.60;;;0.20;99.90;;;-143.32;100.00;97747.31;4824460;29;20873;-90
2020/12/11 01:13:27;;;;;;;50.80;26.57;;;0.20;99.90;;;-143.32;100.00;97775.94;4824192;29;20948;-90
2020/12/11 01:15:54;;;;;;;48.67;26.17;;;0.00;99.90;;;-143.32;100.00;97767.75;4824242;29;21032;-88
2020/12/11 01:18:21;;;;;;;52.87;27.63;;;0.20;99.90;;;-143.32;100.00;97804.59;4824383;29;20460;-89
2020/12/11 01:20:48;;;;;;;56.67;28.60;;;0.20;99.90;;;-143.32;100.00;97790.28;4824314;29;20497;-87
2020/12/11 01:23:14;;;;;;;50.80;27.20;;;0.20;99.90;;;-143.32;100.00;97741.16;4824229;29;20548;-87
2020/12/11 01:25:41;;;;;;;51.97;27.23;;;0.30;99.90;;;-143.32;100.00;97796.41;4824078;29;20524;-89
2020/12/11 01:28:08;;;;;;;55.00;27.23;;;0.30;99.90;;;-143.32;100.00;97726.84;4824309;29;20487;-88
2020/12/11 01:30:34;;;;;;;55.60;27.47;;;0.30;99.90;;;-143.32;100.00;97773.91;4824373;29;20489;-89
2020/12/11 01:33:02;;;;;;;50.13;26.37;;;0.30;99.90;;;-143.32;100.00;97745.25;4824520;29;21008;-90
2020/12/11 01:35:28;;;;;;;46.50;26.67;;;0.40;99.90;;;-143.32;100.00;97782.09;4826667;29;20551;-90
2020/12/11 01:37:55;;;;;;;48.67;26.77;;;0.40;99.90;;;-143.32;100.00;97773.91;4827324;29;20499;-86
2020/12/11 01:40:22;;;;;;;46.63;24.93;;;0.40;99.90;;;-143.32;100.00;97767.75;4827239;29;20460;-88
2020/12/11 01:42:48;;;;;;;46.27;24.83;;;0.40;99.90;;;-143.32;100.00;97728.88;4827394;29;20503;-88
2020/12/11 01:45:15;;;;;;;50.90;25.37;;;0.40;99.90;;;-143.32;100.00;97743.22;4827415;29;20542;-87
2020/12/11 01:47:42;;;;;;;49.00;27.00;;;0.50;99.90;;;-143.32;100.00;97763.66;4827019;29;21028;-88
2020/12/11 01:50:18;;;;;;;52.23;27.20;;;0.50;99.90;;;-143.32;100.00;97714.56;4827067;29;20460;-89
2020/12/11 01:52:46;;;;;;;46.00;25.70;;;0.50;99.90;;;-143.32;100.00;97753.44;4827085;29;20443;-88
2020/12/11 01:55:13;;;;;;;50.00;26.90;;;0.60;99.90;;;-143.32;100.00;97761.63;4827286;29;20510;-89
2020/12/11 01:57:52;;;;;;;50.77;27.17;;;0.60;99.90;;;-143.32;100.00;97773.91;4827416;29;20460;-88
2020/12/11 02:00:21;;;;;;;50.30;25.50;;;0.60;99.90;;;-143.32;100.00;97757.53;4827604;29;20555;-87
2020/12/11 02:02:53;;;;;;;48.27;26.50;;;0.60;99.90;;;-143.32;100.00;97773.91;4827084;29;20622;-88
2020/12/11 02:05:21;;;;;;;47.87;26.50;;;0.60;99.90;;;-143.32;100.00;97743.22;4826852;29;21013;-87
2020/12/11 02:07:48;;;;;;;53.27;27.57;;;0.60;99.90;;;-143.32;100.00;97716.63;4826745;29;20459;-89
2020/12/11 02:10:14;;;;;;;48.63;25.93;;;0.60;99.90;;;-143.32;100.00;97737.06;4827062;29;20484;-89
2020/12/11 02:12:41;;;;;;;48.93;26.20;;;0.60;99.90;;;-143.32;100.00;97743.22;4826777;29;20553;-88
2020/12/11 02:15:08;;;;;;;47.30;24.90;;;0.60;99.90;;;-143.32;100.00;97769.81;4826672;29;20483;-88
2020/12/11 02:17:36;;;;;;;69.53;27.50;;;0.70;99.90;;;-143.32;100.00;97694.13;4826858;29;20502;-89
2020/12/11 02:20:04;;;;;;;48.47;25.07;;;0.60;99.90;;;-143.32;100.00;97749.34;4826606;29;20460;-88
2020/12/11 02:22:31;;;;;;;49.63;25.03;;;0.70;99.90;;;-143.32;100.00;97761.63;4826771;29;20536;-87
2020/12/11 02:24:58;;;;;;;50.63;25.90;;;0.60;99.90;;;-143.32;100.00;97735.03;4826429;29;20550;-91
2020/12/11 02:27:24;;;;;;;46.57;25.67;;;0.70;99.90;;;-143.32;100.00;97739.13;4826789;29;20883;-88
2020/12/11 02:29:51;;;;;;;49.27;26.03;;;0.80;99.90;;;-143.32;100.00;97804.59;4826775;29;20487;-90
2020/12/11 02:32:17;;;;;;;54.97;28.00;;;0.60;99.90;;;-143.32;100.00;97773.91;4826408;29;20960;-88
2020/12/11 02:34:45;;;;;;;47.77;27.30;;;0.60;99.90;;;-143.32;100.00;97759.59;4826305;29;20453;-87
2020/12/11 02:37:13;;;;;;;52.83;27.60;;;0.60;99.90;;;-143.32;100.00;97759.59;4826166;29;20496;-90
2020/12/11 02:39:42;;;;;;;55.57;28.33;;;0.60;99.90;;;-143.32;100.00;97751.41;4826539;29;20460;-87
2020/12/11 02:42:09;;;;;;;50.40;26.73;;;0.50;99.90;;;-143.32;100.00;97720.72;4826536;29;20934;-87
2020/12/11 02:44:35;;;;;;;49.53;27.20;;;0.50;99.90;;;-143.32;100.00;97767.75;4826470;29;20487;-87
2020/12/11 02:47:02;;;;;;;49.10;24.93;;;0.60;99.90;;;-143.32;100.00;97771.84;4825274;29;20452;-88
2020/12/11 02:49:29;;;;;;;47.20;25.57;;;0.50;99.90;;;-143.32;100.00;97710.47;4826406;29;20546;-89
2020/12/11 02:51:56;;;;;;;48.27;25.00;;;0.50;99.90;;;-143.32;100.00;97739.13;4826452;29;20488;-89
2020/12/11 02:54:22;;;;;;;54.13;26.40;;;0.60;99.90;;;-143.32;100.00;97741.16;4826226;29;20804;-93
2020/12/11 02:56:50;;;;;;;46.80;26.03;;;0.60;99.90;;;-143.32;100.00;97741.16;4826392;29;20492;-88
2020/12/11 02:59:16;;;;;;;46.00;25.03;;;0.50;99.90;;;-143.32;100.00;97751.41;4826327;29;20488;-89
2020/12/11 03:01:43;;;;;;;53.53;25.57;;;0.60;99.90;;;-143.32;100.00;97743.22;4825990;29;20452;-91
2020/12/11 03:04:09;;;;;;;48.60;25.67;;;0.60;99.90;;;-143.32;100.00;97771.84;4825977;29;21024;-92
2020/12/11 03:06:36;;;;;;;47.67;26.23;;;0.60;99.90;;;-143.32;100.00;97732.97;4826000;29;20483;-93
2020/12/11 03:09:04;;;;;;;46.73;26.17;;;0.60;99.90;;;-143.32;100.00;97702.28;4826862;29;20555;-92
2020/12/11 03:11:31;;;;;;;45.77;24.73;;;0.60;99.90;;;-143.32;100.00;97769.81;4826146;29;20550;-91
2020/12/11 03:13:58;;;;;;;50.47;25.93;;;0.60;99.90;;;-143.32;100.00;97763.66;4826145;29;20600;-91
2020/12/11 03:16:25;;;;;;;44.27;25.43;;;0.60;99.90;;;-143.32;100.00;97714.56;4825780;29;20534;-90
2020/12/11 03:18:51;;;;;;;49.40;25.77;;;0.60;99.90;;;-143.32;100.00;97759.59;4825806;29;21038;-91
2020/12/11 03:21:18;;;;;;;50.40;25.63;;;0.60;99.90;;;-143.32;100.00;97755.50;4826107;29;20997;-91
2020/12/11 03:23:45;;;;;;;47.00;25.60;;;0.50;99.90;;;-143.32;100.00;97743.22;4825616;29;20519;-92
2020/12/11 03:26:11;;;;;;;52.23;27.40;;;0.60;99.90;;;-143.32;100.00;97761.63;4825955;29;20484;-91
2020/12/11 03:28:38;;;;;;;52.03;26.83;;;0.60;99.90;;;-143.32;100.00;97780.03;4825631;29;20476;-91
2020/12/11 03:31:05;;;;;;;47.27;25.67;;;0.60;99.90;;;-143.32;100.00;97702.28;4825732;29;20476;-90
2020/12/11 03:33:32;;;;;;;54.10;27.27;;;0.50;99.90;;;-143.32;100.00;97767.75;4825848;29;20491;-90
2020/12/11 03:35:59;;;;;;;60.27;27.67;;;0.50;99.90;;;-143.32;100.00;97730.94;4825388;29;20452;-91
2020/12/11 03:38:25;;;;;;;48.10;26.47;;;0.40;99.90;;;-143.32;100.00;97765.72;4825777;29;20513;-91
2020/12/11 03:40:52;;;;;;;51.03;26.30;;;0.60;99.90;;;-143.32;100.00;97765.72;4825647;29;20540;-92
2020/12/11 03:43:18;;;;;;;48.53;27.27;;;0.40;99.90;;;-143.32;100.00;97722.75;4825298;29;20487;-93
2020/12/11 03:45:45;;;;;;;50.33;28.20;;;0.40;99.90;;;-143.32;100.00;97765.72;4825667;29;20499;-91
2020/12/11 03:48:13;;;;;;;51.40;27.33;;;0.40;99.90;;;-143.32;100.00;97771.84;4825465;29;20925;-91
2020/12/11 03:50:39;;;;;;;46.30;25.93;;;0.30;99.90;;;-143.32;100.00;97765.72;4825619;29;20524;-90
2020/12/11 03:53:06;;;;;;;45.60;26.20;;;0.40;99.90;;;-143.32;100.00;97759.59;4825403;29;20539;-91
2020/12/11 03:55:32;;;;;;;48.30;28.17;;;0.40;99.90;;;-143.32;100.00;97749.34;4825311;29;20848;-92
2020/12/11 03:57:59;;;;;;;47.73;26.43;;;0.40;99.90;;;-143.32;100.00;97732.97;4825218;29;20463;-92
2020/12/11 04:00:26;;;;;;;45.87;24.67;;;0.40;99.90;;;-143.32;100.00;97763.66;4825431;29;20892;-90
2020/12/11 04:02:52;;;;;;;48.23;24.90;;;0.50;99.90;;;-143.32;100.00;97800.50;4825806;29;20586;-90
2020/12/11 04:05:20;;;;;;;43.03;23.87;;;0.50;99.90;;;-143.32;100.00;97753.44;4825400;29;20456;-90
2020/12/11 04:07:46;;;;;;;45.27;24.83;;;0.60;99.90;;;-143.32;100.00;97745.25;4825163;29;20444;-92
2020/12/11 04:10:14;;;;;;;44.83;25.27;;;0.60;99.90;;;-143.32;100.00;97782.09;4825299;29;20517;-90
2020/12/11 04:12:40;;;;;;;44.17;26.17;;;0.60;99.90;;;-143.32;100.00;97745.25;4825378;29;20578;-92
2020/12/11 04:15:07;;;;;;;43.10;24.23;;;0.70;99.90;;;-143.32;100.00;97761.63;4825348;29;20483;-91
2020/12/11 04:17:34;;;;;;;41.77;23.40;;;0.80;99.90;;;-143.32;100.00;97745.25;4825141;29;20555;-91
2020/12/11 04:20:00;;;;;;;36.10;21.53;;;0.80;99.90;;;-143.32;100.00;97712.53;4825230;29;20510;-92
2020/12/11 04:22:28;;;;;;;39.57;22.97;;;0.80;99.90;;;-143.32;100.00;97726.84;4824884;29;20535;-91
2020/12/11 04:24:54;;;;;;;35.63;21.90;;;0.80;99.90;;;-143.32;100.00;97763.66;4824959;29;20463;-91
2020/12/11 04:27:21;;;;;;;39.97;22.37;;;0.80;99.90;;;-143.32;100.00;97737.06;4824837;29;20487;-91
2020/12/11 04:29:47;;;;;;;36.37;21.57;;;0.90;99.90;;;-143.32;100.00;97718.66;4824831;29;20535;-90
2020/12/11 04:32:14;;;;;;;36.73;21.13;;;0.90;99.90;;;-143.32;100.00;97749.34;4825946;29;20871;-91
2020/12/11 04:34:41;;;;;;;32.43;20.70;;;1.00;99.90;;;-143.32;100.00;97753.44;4824956;29;20817;-90
2020/12/11 04:37:07;;;;;;;36.13;22.50;;;1.10;99.90;;;-143.32;100.00;97751.41;4825525;29;20873;-91
2020/12/11 04:39:35;;;;;;;37.87;21.77;;;1.00;99.90;;;-143.32;100.00;97747.31;4824905;29;20440;-91
2020/12/11 04:42:03;;;;;;;34.97;20.60;;;1.00;99.90;;;-143.32;100.00;97753.44;4824759;29;20500;-91
2020/12/11 04:44:30;;;;;;;32.43;19.63;;;1.10;99.90;;;-143.32;100.00;97739.13;4824946;29;20471;-90
2020/12/11 04:47:05;;;;;;;37.20;20.17;;;1.10;99.90;;;-143.32;100.00;97730.94;4825552;29;20788;-92
2020/12/11 04:49:34;;;;;;;33.50;20.77;;;1.10;99.90;;;-143.32;100.00;97724.81;4824618;29;20503;-92
2020/12/11 04:52:05;;;;;;;34.23;20.40;;;1.10;99.90;;;-143.32;100.00;97716.63;4824641;29;20505;-91
2020/12/11 04:54:39;;;;;;;29.43;19.57;;;1.20;99.90;;;-143.32;100.00;97702.28;4826612;29;20506;-92
2020/12/11 04:57:10;;;;;;;29.30;18.10;;;1.10;99.90;;;-143.32;100.00;97710.47;4827529;29;20485;-93
2020/12/11 04:59:40;;;;;;;31.80;18.80;;;1.20;99.90;;;-143.32;99.86;97755.50;4827367;29;21001;-93
2020/12/11 05:02:12;;;;;;;28.47;18.30;;;1.20;99.90;;;-143.32;99.90;97728.88;4826371;29;20580;-94
2020/12/11 05:04:42;;;;;;;25.30;17.07;;;1.30;99.90;;;-143.32;99.89;97708.44;4826690;29;20540;-93
2020/12/11 05:07:09;;;;;;;27.90;17.87;;;1.30;99.90;;;-143.32;99.64;97722.75;4827335;29;20476;-93
2020/12/11 05:12:51;;;;;;;31.80;19.50;;;1.30;99.90;;;-143.32;99.76;97714.56;4829988;29;20460;-93
2020/12/11 05:15:28;;;;;;;32.30;17.73;;;1.30;99.90;;;-143.32;99.39;97710.47;4832243;29;20495;-92
2020/12/11 05:20:56;;;;;;;34.77;20.30;;;1.30;99.90;;;-143.32;99.56;97704.34;4829651;29;20471;-92
2020/12/11 05:23:34;;;;;;;28.90;17.60;;;1.20;99.90;;;-143.32;99.67;97690.03;4827541;29;20494;-92
2020/12/11 05:41:00;;;;;;;30.47;18.70;;;1.10;99.90;;;-143.32;99.91;97745.25;4841779;29;20468;-93
2020/12/11 05:43:38;;;;;;;34.13;20.90;;;1.10;99.90;;;-143.32;99.85;97741.16;4827269;29;20884;-92
2020/12/11 05:46:27;;;;;;;34.50;19.80;;;1.10;99.90;;;-143.32;99.85;97728.88;4844434;29;20444;-93
2020/12/11 05:48:59;;;;;;;32.17;19.80;;;1.10;99.90;;;-143.32;100.00;97745.25;4826502;29;20448;-92
2020/12/11 06:03:28;;;;;;;30.77;17.70;;;1.00;99.90;;;-143.32;100.00;97743.22;4711016;30;20545;-93
2020/12/11 06:06:03;;;;;;;31.73;18.73;;;1.00;99.90;;;-143.32;99.84;97712.53;4789427;29;20463;-93
2020/12/11 06:08:38;;;;;;;33.10;19.97;;;1.00;99.90;;;-143.32;99.84;97726.84;4832942;29;20444;-92
2020/12/11 06:11:21;;;;;;;29.47;18.13;;;1.00;99.90;;;-143.32;99.78;97751.41;4822717;29;20547;-93
2020/12/11 06:13:59;;;;;;;25.20;17.27;;;1.10;99.90;;;-143.32;99.65;97761.63;4827677;29;20916;-92
2020/12/11 06:20:10;;;;;;;31.30;19.07;;;1.10;99.90;;;-143.32;99.30;97722.75;4821190;29;20518;-92
2020/12/11 06:22:44;;;;;;;30.30;17.80;;;1.20;99.90;;;-143.32;99.28;97718.66;4827987;29;20504;-93
2020/12/11 06:25:30;;;;;;;26.87;17.63;;;1.40;99.90;;;-143.32;99.07;97687.97;4829990;29;20467;-93
2020/12/11 06:28:01;;;;;;;26.00;15.97;;;1.30;99.90;;;-143.32;98.78;97737.06;4830260;29;20801;-93
2020/12/11 06:30:31;;;;;;;23.40;15.67;;;1.40;99.90;;;-143.32;98.28;97671.59;4829565;29;20766;-92
2020/12/11 06:33:00;;;;;;;29.70;17.07;;;1.50;99.90;;;-143.32;98.26;97687.97;4827387;29;20445;-93
2020/12/11 06:35:29;;;;;;;23.30;15.60;;;1.50;99.90;;;-143.32;98.14;97745.25;4827731;29;20495;-92
2020/12/11 06:37:56;;;;;;;30.77;18.93;;;1.50;99.90;;;-143.32;98.68;97710.47;4827069;29;20460;-92
2020/12/11 06:40:51;;;;;;;28.60;18.80;;;1.50;99.90;;;-143.32;98.68;97706.38;4826864;29;20463;-92
2020/12/11 06:43:41;;;;;;;30.60;18.43;;;1.50;99.90;;;-143.32;98.49;97718.66;4818378;29;20535;-92
2020/12/11 06:46:19;;;;;;;34.63;18.87;;;1.50;99.90;;;-143.32;98.52;97694.13;4827033;29;20456;-91
2020/12/11 06:49:05;;;;;;;27.83;17.63;;;1.50;99.90;;;-143.32;98.40;97704.34;4827192;29;20811;-94
2020/12/11 06:51:33;;;;;;;24.03;16.03;;;1.50;99.90;;;-143.32;98.39;97718.66;4826728;29;20486;-90
2020/12/11 06:54:03;;;;;;;32.03;17.87;;;1.50;99.90;;;-143.32;98.60;97716.63;4826932;29;20444;-94
2020/12/11 07:00:37;;;;;;;25.17;16.63;;;1.50;99.90;;;-143.32;98.67;97743.22;4820917;29;20450;-93
2020/12/11 07:03:33;;;;;;;30.90;18.27;;;1.50;99.90;;;-143.32;98.74;97710.47;4826972;29;20488;-92
2020/12/11 07:06:09;;;;;;;31.80;18.37;;;1.50;99.90;;;-143.32;98.79;97728.88;4827354;29;20864;-95
2020/12/11 07:12:18;;;;;;;34.43;19.57;;;1.40;99.90;;;-143.32;98.87;97728.88;4826791;29;20774;-92
2020/12/11 07:14:46;;;;;;;31.57;18.93;;;1.40;99.90;;;-143.32;99.13;97741.16;4827941;29;21012;-93
2020/12/11 07:17:25;;;;;;;30.13;18.00;;;1.40;99.90;;;-143.32;99.41;97712.53;4826571;29;20479;-93
2020/12/11 07:19:52;;;;;;;29.07;19.37;;;1.40;99.90;;;-143.32;99.49;97735.03;4827433;29;20452;-92
2020/12/11 07:22:22;;;;;;;31.03;19.03;;;1.50;99.90;;;-143.32;99.35;97722.75;4826988;29;20523;-92
2020/12/11 07:24:49;;;;;;;28.10;17.60;;;1.50;99.90;;;-143.32;99.36;97726.84;4827679;29;20543;-92
2020/12/11 07:27:17;;;;;;;31.30;18.30;;;1.40;99.90;;;-143.32;99.28;97741.16;4826694;29;20476;-91
2020/12/11 07:29:50;;;;;;;35.57;20.20;;;1.30;99.90;;;-143.32;99.41;97716.63;4826289;29;20472;-92
2020/12/11 07:32:21;;;;;;;32.27;19.10;;;1.50;99.90;;;-143.32;99.34;97726.84;4825741;29;20505;-91
2020/12/11 07:34:48;;;;;;;35.77;19.90;;;1.40;99.90;;;-143.32;99.40;97724.81;4827014;29;20559;-92
2020/12/11 07:37:20;;;;;;;31.47;18.30;;;1.40;99.90;;;-143.32;99.14;97696.16;4826483;29;20480;-93
2020/12/11 07:39:48;;;;;;;31.30;19.40;;;1.60;99.90;;;-143.32;99.28;97687.97;4826157;29;20508;-91
2020/12/11 07:42:29;;;;;;;32.10;19.10;;;1.40;99.90;;;-143.32;99.24;97718.66;4826618;29;20464;-94
2020/12/11 07:44:57;;;;;;;33.83;19.00;;;1.50;99.90;;;-143.32;99.44;97714.56;4826911;29;20841;-94
2020/12/11 07:47:27;;;;;;;31.57;18.70;;;1.50;99.90;;;-143.32;99.29;97698.19;4826366;29;20456;-91
2020/12/11 09:29:25;;;;;;;23.53;14.20;;;3.30;99.90;;;-143.32;94.93;97645.00;4804634;29;20495;-92
2020/12/11 13:05:19;;;;;;;23.27;13.00;;;4.40;99.90;;;-143.32;100.00;97559.06;4877572;29;20491;-91
2020/12/11 13:07:53;;;;;;;20.90;12.73;;;4.30;99.90;;;-143.32;100.00;97536.56;4815348;29;20521;-91
2020/12/11 13:27:36;;;;;;;21.90;13.50;;;4.50;99.90;;;-143.32;100.00;97542.72;4813934;29;20476;-93
2020/12/11 13:33:13;;;;;;;25.40;14.37;;;4.40;99.90;;;-143.32;100.00;97485.44;4862595;29;20454;-92
2020/12/11 13:35:56;;;;;;;22.47;12.77;;;4.40;99.90;;;-143.32;100.00;97567.25;4871750;29;20992;-90
2020/12/11 13:43:08;;;;;;;20.87;13.63;;;4.50;99.90;;;-143.32;100.00;97546.81;4869339;29;20448;-92
2020/12/11 14:42:52;;;;;;;;;;;;;;;;;;;;;
2020/12/11 14:49:19;;;;;;;16.97;8.63;;;4.90;99.90;;;-143.32;99.94;97555.00;4842641;29;20873;-91
2020/12/11 14:51:58;;;;;;;15.87;10.60;;;4.90;99.90;;;-143.32;99.96;97491.56;4770181;30;20491;-89
2020/12/11 14:54:58;;;;;;;15.50;9.83;;;4.90;99.90;;;-143.32;99.69;97569.31;4773609;30;20489;-90
2020/12/11 14:57:49;;;;;;;12.67;8.77;;;4.90;99.90;;;-143.32;99.62;97536.56;4843772;29;20466;-88
2020/12/11 15:04:01;;;;;;;12.00;9.20;;;4.70;99.90;;;-143.32;99.77;97534.53;4881224;29;20484;-88
2020/12/11 15:06:46;;;;;;;16.23;8.90;;;4.90;99.90;;;-143.32;99.30;97520.22;4882034;29;20992;-90
2020/12/11 15:12:10;;;;;;;15.50;9.20;;;4.90;99.90;;;-143.32;98.82;97561.13;4824022;29;20485;-89
2020/12/11 15:14:50;;;;;;;13.90;8.60;;;4.90;99.90;;;-143.32;98.88;97487.47;4843449;29;20496;-89
2020/12/11 15:17:33;;;;;;;13.07;8.40;;;4.90;99.90;;;-143.32;98.81;97512.03;4880443;29;20580;-91
2020/12/11 15:20:06;;;;;;;15.60;9.13;;;4.90;99.90;;;-143.32;98.86;97542.72;4880974;29;20460;-90
2020/12/11 15:22:42;;;;;;;15.53;9.40;;;4.90;99.90;;;-143.32;98.87;97489.53;4882240;29;20448;-89
2020/12/11 15:31:49;;;;;;;;;;;;;;;;;;;;;
2020/12/11 15:49:10;;;;;;;11.77;8.40;;;4.80;99.90;;;-143.32;98.89;97505.88;4658936;30;20458;-89
2020/12/11 16:02:18;;;;;;;12.77;8.90;;;4.90;99.90;;;-143.32;98.59;97503.84;4681906;30;20447;-90
2020/12/11 16:07:48;;;;;;;;;;;;;;;;;;;;;
2020/12/11 16:10:31;;;;;;;18.17;9.63;;;5.00;99.90;;;-143.32;98.61;97518.16;4769101;30;21003;-88
2020/12/11 16:13:24;;;;;;;;;;;;;;;;;;;;;
2020/12/11 16:16:01;;;;;;;;;;;;;;;;;;;;;
2020/12/11 16:18:31;;;;;;;14.07;9.07;;;5.00;99.90;;;-143.32;97.81;97479.28;4862322;29;20437;-89
2020/12/11 16:21:37;;;;;;;16.40;10.30;;;5.00;99.90;;;-143.32;97.60;97509.97;4858178;29;20455;-89
2020/12/11 16:24:13;;;;;;;;;;;;;;;;;;;;;
2020/12/11 16:27:23;;;;;;;15.70;9.70;;;5.10;99.90;;;-143.32;97.66;97514.06;4858908;29;20496;-85
2020/12/11 16:29:50;;;;;;;17.43;10.70;;;5.10;99.90;;;-143.32;97.35;97512.03;4860307;29;20488;-88
2020/12/11 16:32:18;;;;;;;12.53;8.60;;;5.10;99.90;;;-143.32;97.48;97491.56;4874183;29;20609;-88
2020/12/11 16:34:51;;;;;;;17.20;9.90;;;5.30;99.90;;;-143.32;97.67;97446.56;4879812;29;20464;-87
2020/12/11 16:37:27;;;;;;;15.37;9.83;;;5.30;99.90;;;-143.32;97.89;97518.16;4881819;29;20469;-89
2020/12/11 16:40:19;;;;;;;14.90;9.30;;;5.10;99.90;;;-143.32;98.00;97534.53;4885743;29;20547;-88
2020/12/11 16:43:00;;;;;;;14.10;8.70;;;5.10;99.90;;;-143.32;97.86;97505.88;4872166;29;20481;-87
2020/12/11 16:46:03;;;;;;;14.13;8.93;;;5.20;99.90;;;-143.32;97.63;97540.66;4866818;29;20557;-88
2020/12/11 16:48:52;;;;;;;15.33;9.47;;;5.10;99.90;;;-143.32;97.48;97448.59;4844430;29;20458;-89
2020/12/11 16:52:23;;;;;;;13.23;8.27;;;5.10;99.90;;;-143.32;97.34;97495.66;4867776;29;20457;-88
2020/12/11 16:55:00;;;;;;;13.63;9.30;;;5.30;99.90;;;-143.32;97.97;97518.16;4795538;29;20837;-85
2020/12/11 16:57:51;;;;;;;12.97;9.20;;;5.10;99.90;;;-143.32;98.05;97526.34;4885084;29;20548;-86
2020/12/11 19:46:35;;;;;;;22.40;14.03;;;4.40;99.90;;;-143.32;100.00;97563.16;5751522;23;21038;-87
2020/12/11 19:49:38;;;;;;;24.37;14.23;;;4.40;99.90;;;-143.32;100.00;97550.91;4861776;29;20544;-88
2020/12/11 19:56:03;;;;;;;25.00;13.27;;;4.40;99.90;;;-143.32;100.00;97540.66;4861887;29;20414;-89
2020/12/11 19:58:30;;;;;;;21.23;14.17;;;4.40;99.90;;;-143.32;100.00;97573.41;4861774;29;20966;-89
2020/12/11 20:00:57;;;;;;;22.63;14.47;;;4.50;99.90;;;-143.32;100.00;97534.53;4862768;29;20446;-89
2020/12/11 20:03:30;;;;;;;27.17;16.87;;;4.40;99.90;;;-143.32;100.00;97555.00;4862794;29;20812;-88
2020/12/11 20:06:07;;;;;;;22.13;14.50;;;4.50;99.90;;;-143.32;100.00;97581.59;4861990;29;20454;-87
2020/12/11 20:11:34;;;;;;;26.10;15.40;;;4.50;99.90;;;-143.32;100.00;97518.16;4861852;29;20680;-89
2020/12/11 20:14:07;;;;;;;24.23;14.20;;;4.40;99.90;;;-143.32;100.00;97495.66;4862295;29;20450;-89
2020/12/11 20:16:44;;;;;;;23.80;14.07;;;4.40;99.90;;;-143.32;100.00;97557.03;4861844;29;20443;-90
2020/12/11 20:19:12;;;;;;;22.37;14.70;;;4.30;99.90;;;-143.32;100.00;97548.84;4862098;29;20461;-89
2020/12/11 20:32:03;;;;;;;26.83;16.13;;;4.40;99.90;;;-143.32;100.00;97565.22;4810298;29;20957;-88
2020/12/11 20:34:31;;;;;;;23.13;15.17;;;4.40;99.90;;;-143.32;100.00;97512.03;4861326;29;20438;-89
2020/12/11 20:37:00;;;;;;;25.17;15.60;;;4.40;99.90;;;-143.32;100.00;97557.03;4861495;29;20461;-88
2020/12/11 20:39:28;;;;;;;23.80;14.77;;;4.40;99.90;;;-143.32;100.00;97571.34;4861544;29;20499;-88
2020/12/11 20:46:31;;;;;;;28.97;16.20;;;4.30;99.90;;;-143.32;100.00;97550.91;4804627;29;20436;-90
2020/12/11 20:49:08;;;;;;;;;;;;;;;;;;;;;
2020/12/11 20:52:13;;;;;;;29.93;17.97;;;4.30;99.90;;;-143.32;100.00;97559.06;4804311;29;20453;-90
2020/12/11 20:54:47;;;;;;;24.60;15.20;;;4.30;99.90;;;-143.32;100.00;97567.25;4802020;29;20542;-90
2020/12/11 21:14:51;;;;;;;28.87;16.90;;;4.10;99.90;;;-143.32;100.00;97595.91;4671050;30;20464;-90
2020/12/11 21:24:51;;;;;;;28.67;16.80;;;4.00;99.90;;;-143.32;100.00;97620.47;4737786;30;20584;-92
2020/12/11 21:28:23;;;;;;;31.73;19.47;;;4.00;99.90;;;-143.32;100.00;97579.53;4777081;29;20456;-92
2020/12/11 21:31:23;;;;;;;32.27;18.80;;;4.00;99.90;;;-143.32;100.00;97593.84;4778652;29;20837;-90
2020/12/11 21:36:38;;;;;;;40.40;21.33;;;4.00;99.90;;;-143.32;100.00;97622.50;4827730;29;20454;-88
2020/12/11 21:45:59;;;;;;;42.53;22.27;;;4.00;99.90;;;-143.32;100.00;97573.41;4791699;29;20456;-90
2020/12/11 21:55:36;;;;;;;37.87;22.03;;;4.00;99.90;;;-143.32;100.00;97571.34;4790861;30;20422;-90
2020/12/11 21:58:24;;;;;;;37.03;21.20;;;4.10;99.90;;;-143.32;100.00;97563.16;4790781;30;20449;-88
2020/12/11 22:01:36;;;;;;;42.70;23.90;;;4.00;99.90;;;-143.32;100.00;97569.31;4862041;29;20468;-88
2020/12/11 22:04:09;;;;;;;34.10;21.80;;;4.10;99.90;;;-143.32;100.00;97616.38;4857835;29;21036;-90
2020/12/11 22:06:40;;;;;;;33.60;21.70;;;4.10;99.90;;;-143.32;100.00;97550.91;4865806;29;20469;-89
2020/12/11 22:09:09;;;;;;;36.43;22.97;;;4.10;99.90;;;-143.32;100.00;97583.63;4866430;29;20514;-89
2020/12/11 22:11:39;;;;;;;33.77;20.70;;;4.10;99.90;;;-143.32;100.00;97604.09;4864155;29;20488;-91
2020/12/11 22:14:17;;;;;;;36.60;21.87;;;4.10;99.90;;;-143.32;100.00;97600.00;4864811;29;20449;-93
2020/12/11 22:16:48;;;;;;;41.03;21.70;;;4.20;99.90;;;-143.32;100.00;97591.81;4864601;29;20430;-89
2020/12/11 22:19:22;;;;;;;41.80;27.37;;;4.20;99.90;;;-143.32;100.00;97585.69;4864555;29;20431;-90
2020/12/11 22:21:52;;;;;;;37.73;22.17;;;4.20;99.90;;;-143.32;100.00;97567.25;4865385;29;20448;-90